Tiempo atmosférico en la estación meteorológica de Alcoy/Alcoi, Alacant/Alicante (600 m.)



Fecha
DESCASC
Temp. máxima en grados centígrados (hora)
DESCASC
Temp. mínima en grados centígrados (hora)
DESCASC
Temp. media en grados centígrados
DESCASC
Racha de viento máxima en m/sg (hora)
DESCASC
Velocidad máxima media en intervalos de 10 minutos(hora)
DESCASC
Precipitaciones diarias en mm
DESCASC
Precipitaciones de 00:00 a 06:00 en mm
DESCASC
Precipitaciones de 06:00 a 12:00 en mm
DESCASC
Precipitaciones de 12:00 a 18:00 en mm
DESCASC
Precipitaciones de 18:00 a 24:00 en mm
DESCASC
18-01-2018 14.9 (15:20) 3.8 (08:00) 9.3 6.94 (18:20) 3.89 (18:20) 0 0 0 0 0
17-01-2018 19 (14:30) 7.4 (23:59) 13.2 9.17 (01:00) 6.39 (01:30) 0 0 0 0 0
16-01-2018 18.4 (14:30) 6.1 (00:30) 12.2 9.17 (13:00) 5 (21:50) 0 0 0 0 0
15-01-2018 11.6 (16:20) 4.7 (09:00) 8.2 4.44 (05:10) 2.5 (05:10) 0 0 0 0 0
14-01-2018 11.6 (14:20) 5.5 (00:00) 8.6 12.5 (01:50) 6.94 (01:50) 0 0 0 0 0
13-01-2018 13.6 (13:20) 2.5 (00:00) 8.1 8.89 (13:00) 4.17 (13:30) 0 0 0 0 0
12-01-2018 14 (13:50) 2.8 (00:00) 8.4 13.61 (00:30) 6.67 (00:30) 0 0 0 0 0
11-01-2018 10.9 (13:50) 6 (00:00) 8.4 18.89 (12:40) 9.44 (12:20) 0 0 0 0 0
10-01-2018 12.6 (12:00) 6.1 (00:00) 9.4 14.72 (18:30) 8.06 (18:10) 2 1.6 0.4 0 0
09-01-2018 13 (13:20) 2.9 (00:00) 8 8.89 (11:50) 5.28 (14:20) 0 0 0 0 0
08-01-2018 12.3 (14:40) 1.4 (00:00) 6.9 6.67 (15:50) 3.61 (23:20) 0 0 0 0 0
07-01-2018 11 (13:40) 2.3 (00:00) 6.6 8.06 (01:50) 4.17 (01:50) 0 0 0 0 0
06-01-2018 15.7 (13:30) 5.1 (00:00) 10.4 11.11 (21:50) 4.72 (17:40) 7.6 0 0 0.8 6.8
05-01-2018 16.4 (15:00) 7 (00:00) 11.7 10.83 (14:00) 5.56 (14:00) 0 0 0 0 0
04-01-2018 20.4 (13:00) 11.3 (07:40) 15.8 13.89 (13:30) 8.61 (13:20) 0 0 0 0 0
03-01-2018 19.7 (13:20) 11 (00:00) 15.4 11.11 (04:20) 6.67 (06:10) 0 0 0 0 0
02-01-2018 17 (15:50) 8 (00:00) 12.5 12.22 (03:20) 6.67 (04:30) 0 0 0 0 0
01-01-2018 16.6 (14:50) 6.7 (00:00) 11.7 20.28 (02:30) 10.83 (02:20) 0 0 0 0 0
31-12-2017 20.2 (12:40) 7.9 (00:00) 14.1 15.83 (22:40) 5.56 (15:50) 0 0 0 0 0
30-12-2017 19.1 (13:40) 11.1 (00:00) 15.1 10.56 (07:30) 6.94 (19:00) 0 0 0 0 0
29-12-2017 17.3 (14:50) 11.3 (00:00) 14.3 16.11 (12:10) 8.61 (13:00) 0 0 0 0 0
28-12-2017 17 (15:10) 8.4 (00:00) 12.7 18.06 (03:10) 10.56 (03:10) 0 0 0 0 0
27-12-2017 13 (14:00) 8 (00:00) 10.5 18.89 (12:20) 10.83 (12:00) 2.4 0 2.4 0 0
26-12-2017 14.4 (10:50) 6.4 (00:00) 10.4 13.33 (21:30) 6.94 (15:30) 0 0 0 0 0
25-12-2017 15.1 (14:20) 3 (00:00) 9.1 7.22 (15:10) 4.17 (15:10) 0 0 0 0 0
24-12-2017 14 (11:40) 5.5 (00:00) 9.8 7.22 (14:50) 3.61 (12:10) 0 0 0 0 0
23-12-2017 13.4 (16:00) 4.1 (00:00) 8.7 5.56 (16:40) 3.06 (02:10) 0 0 0 0 0
22-12-2017 15.9 (14:20) 5 (00:00) 10.4 5.56 (06:50) 3.33 (07:50) 0 0 0 0 0
21-12-2017 11 (16:10) 5.4 (00:00) 8.2 4.72 (04:00) 2.5 (23:10) 3 0.8 2.2 0 0

Gráficas

Temp. máximas Temp. mínimas Temp. medias Precipitaciones Rachas de viento máximas Velocidades máximas media en intervalos de 10 minutos

Datos horarios

Fecha y hora oficial Temperatura (ºC) Velocidad del viento (km/h) Dirección del viento Racha (km/h) Dirección de racha Precipitación (mm) Presión (hPa) Tendencia (hPa) Humedad (%)
2018-01-19 23:00:00 8.7 11 Sudoeste 17 Oeste 0 -- -- 58
2018-01-19 22:00:00 9.1 9 Sudoeste 19 Sur 0 -- -- 57
2018-01-19 21:00:00 9.8 9 Sudoeste 17 Sudoeste 0 -- -- 55
2018-01-19 20:00:00 11.4 10 Sudoeste 21 Sudoeste 0 -- -- 50
2018-01-19 19:00:00 12.2 9 Sudoeste 14 Sudoeste 0 -- -- 49
2018-01-19 18:00:00 13.2 4 Sur 10 Norte 0 -- -- 45
2018-01-19 17:00:00 14.8 4 Sur 15 Sur 0 -- -- 40
2018-01-19 16:00:00 15.6 5 Sudoeste 12 Sudoeste 0 -- -- 39
2018-01-19 15:00:00 15.4 3 Sudeste 17 Nordeste 0 -- -- 45
2018-01-19 14:00:00 13.4 9 Nordeste 13 Este 0 -- -- 51
2018-01-19 13:00:00 12.3 8 Este 13 Este 0 -- -- 56
2018-01-19 12:00:00 13.6 3 Nordeste 10 Sudoeste 0 -- -- 49
2018-01-19 11:00:00 13.4 6 Sudoeste 13 Sudoeste 0 -- -- 43
2018-01-19 10:00:00 9.2 10 Sudoeste 15 Sudoeste 0 -- -- 54
2018-01-19 09:00:00 7.1 6 Sudoeste 10 Sudoeste 0 -- -- 61
2018-01-19 08:00:00 6.8 5 Sudoeste 8 Sudoeste 0 -- -- 63
2018-01-19 07:00:00 7.1 4 Sudoeste 10 Sudoeste 0 -- -- 64
2018-01-19 06:00:00 7.3 6 Sudoeste 17 Sudoeste 0 -- -- 66
2018-01-19 05:00:00 7.3 8 Sudoeste 14 Sudoeste 0 -- -- 69
2018-01-19 04:00:00 7.2 4 Sudoeste 13 Sudoeste 0 -- -- 72
2018-01-19 03:00:00 7.2 3 Oeste 14 Sudoeste 0 -- -- 73
2018-01-19 02:00:00 8.1 6 Sudoeste 14 Oeste 0 -- -- 70
2018-01-19 01:00:00 7.4 5 Oeste 15 Sudoeste 0 -- -- 74
2018-01-19 00:00:00 7.3 9 Sudoeste 15 Sudoeste 0 -- -- 76
2018-01-18 23:00:00 7.6 4 Sudoeste 13 Sudoeste 0 -- -- 76
2018-01-18 22:00:00 7.6 6 Sudoeste 18 Sudoeste 0 -- -- 78
2018-01-18 21:00:00 8.4 6 Sudoeste 11 Sudoeste 0 -- -- 78
2018-01-18 20:00:00 8.9 4 Sudoeste 16 Sudoeste 0 -- -- 78
2018-01-18 19:00:00 9.7 6 Sudoeste 25 Sudoeste 0 -- -- 76
2018-01-18 18:00:00 11.1 9 Sur 22 Sur 0 -- -- 70
2018-01-18 17:00:00 14.1 6 Nordeste 14 Nordeste 0 -- -- 59
2018-01-18 16:00:00 14.7 6 Nordeste 14 Sudeste 0 -- -- 54
2018-01-18 15:00:00 14.4 8 Este 16 Nordeste 0 -- -- 50
2018-01-18 14:00:00 13.8 9 Este 16 Este 0 -- -- 50
2018-01-18 13:00:00 12.7 6 Nordeste 13 Este 0 -- -- 52
2018-01-18 12:00:00 11 8 Este 15 Este 0 -- -- 61
2018-01-18 11:00:00 12.1 0 Calma 11 Sudoeste 0 -- -- 56
2018-01-18 10:00:00 7.6 7 Sudoeste 15 Oeste 0 -- -- 71
2018-01-18 09:00:00 4.3 10 Sudoeste 18 Sudoeste 0 -- -- 84
2018-01-18 08:00:00 3.8 10 Sudoeste 16 Sudoeste 0 -- -- 85
2018-01-18 07:00:00 4 10 Sudoeste 18 Sudoeste 0 -- -- 84
2018-01-18 06:00:00 4.5 9 Sudoeste 17 Sudoeste 0 -- -- 84
2018-01-18 05:00:00 4.7 9 Sudoeste 18 Sudoeste 0 -- -- 83
2018-01-18 04:00:00 5.4 8 Sudoeste 17 Sudoeste 0 -- -- 79
2018-01-18 03:00:00 5.9 8 Sudoeste 21 Sudoeste 0 -- -- 76
2018-01-18 02:00:00 6 7 Sudoeste 14 Sudoeste 0 -- -- 73
2018-01-18 01:00:00 7.1 8 Sudoeste 11 Sudoeste 0 -- -- 69
2018-01-18 00:00:00 7.4 10 Sudoeste 17 Sudoeste 0 -- -- 66
2018-01-17 23:00:00 8 8 Sudoeste 17 Sudoeste 0 -- -- 64
2018-01-17 22:00:00 8.7 6 Sudoeste 18 Sudoeste 0 -- -- 62
2018-01-17 21:00:00 9.4 12 Sudoeste 20 Sudoeste 0 -- -- 60
2018-01-17 20:00:00 10.6 9 Sudoeste 16 Sudoeste 0 -- -- 57
2018-01-17 19:00:00 12.1 8 Sudoeste 12 Sudoeste 0 -- -- 54
2018-01-17 18:00:00 14 0 Calma 10 Este 0 -- -- 47
2018-01-17 17:00:00 16.8 7 Nordeste 15 Nordeste 0 -- -- 40
2018-01-17 16:00:00 17.5 10 Nordeste 18 Nordeste 0 -- -- 40
2018-01-17 15:00:00 18.1 9 Nordeste 15 Nordeste 0 -- -- 36
2018-01-17 14:00:00 17.8 7 Este 15 Este 0 -- -- 35
2018-01-17 13:00:00 17.2 8 Nordeste 15 Este 0 -- -- 38
2018-01-17 12:00:00 16.2 6 Este 10 Este 0 -- -- 41
2018-01-17 11:00:00 13.5 6 Este 13 Sudeste 0 -- -- 48
2018-01-17 10:00:00 12.7 5 Este 18 Sudoeste 0 -- -- 50
2018-01-17 09:00:00 10.5 16 Sudoeste 26 Sudoeste 0 -- -- 56
2018-01-17 08:00:00 11.5 20 Oeste 30 Sudoeste 0 -- -- 51
2018-01-17 07:00:00 11.4 12 Oeste 27 Sur 0 -- -- 52
2018-01-17 06:00:00 10.6 12 Sudoeste 25 Sur 0 -- -- 62
2018-01-17 05:00:00 10.5 12 Sudoeste 20 Sudoeste 0 -- -- 60
2018-01-17 04:00:00 10.3 8 Sudoeste 21 Sur 0 -- -- 58
2018-01-17 03:00:00 11.2 9 Sudoeste 31 Sudoeste 0 -- -- 56
2018-01-17 02:00:00 11.8 18 Sudoeste 30 Oeste 0 -- -- 53
2018-01-17 01:00:00 12.9 23 Oeste 33 Oeste 0 -- -- 50
2018-01-17 00:00:00 11.2 9 Sudoeste 23 Sudoeste 0 -- -- 60
2018-01-16 23:00:00 12.5 15 Sudoeste 26 Sudoeste 0 -- -- 57
2018-01-16 22:00:00 12.5 14 Sudoeste 28 Sudoeste 0 -- -- 60
2018-01-16 21:00:00 12.5 10 Sur 18 Sur 0 -- -- 61
2018-01-16 20:00:00 13.5 12 Sur 20 Sur 0 -- -- 58
2018-01-16 19:00:00 13.7 8 Sur 16 Sur 0 -- -- 57
2018-01-16 18:00:00 14.6 3 Sur 28 Sudoeste 0 -- -- 53
2018-01-16 17:00:00 16.4 14 Sudoeste 28 Sudoeste 0 -- -- 46
2018-01-16 16:00:00 16.8 15 Sudoeste 33 Sudoeste 0 -- -- 45
2018-01-16 15:00:00 18.1 13 Oeste 26 Oeste 0 -- -- 40
2018-01-16 14:00:00 17.2 14 Oeste 28 Oeste 0 -- -- 42
2018-01-16 13:00:00 15.3 15 Sudoeste 33 Oeste 0 -- -- 45
2018-01-16 12:00:00 13.8 16 Oeste 26 Sudoeste 0 -- -- 44
2018-01-16 11:00:00 12.1 12 Sudoeste 22 Sudoeste 0 -- -- 44
2018-01-16 10:00:00 10.6 6 Sur 17 Sudeste 0 -- -- 49
2018-01-16 09:00:00 7.5 7 Sur 19 Sur 0 -- -- 58
2018-01-16 08:00:00 7.4 10 Sudoeste 25 Sur 0 -- -- 59
2018-01-16 07:00:00 7.2 12 Sur 24 Sur 0 -- -- 58
2018-01-16 06:00:00 6.6 8 Sudoeste 21 Sudoeste 0 -- -- 60
2018-01-16 05:00:00 7.4 17 Oeste 27 Sudoeste 0 -- -- 55
2018-01-16 04:00:00 7.1 13 Sudoeste 24 Sudoeste 0 -- -- 55
2018-01-16 03:00:00 6.7 7 Sur 18 Sur 0 -- -- 58
2018-01-16 02:00:00 6.6 6 Sur 12 Sudoeste 0 -- -- 58
2018-01-16 01:00:00 6.7 6 Sudoeste 12 Sudoeste 0 -- -- 60
2018-01-16 00:00:00 6.7 3 Sudoeste 9 Sudoeste 0 -- -- 61
2018-01-15 23:00:00 6.7 4 Sur 10 Sur 0 -- -- 59
2018-01-15 22:00:00 7.1 4 Sur 16 Sur 0 -- -- 59
2018-01-15 21:00:00 7.1 7 Sudoeste 16 Sudoeste 0 -- -- 66
2018-01-15 20:00:00 7.6 6 Sudoeste 14 Sudoeste 0 -- -- 69
2018-01-15 19:00:00 8.3 6 Sudoeste 13 Sur 0 -- -- 64
2018-01-15 18:00:00 9.1 4 Sudoeste 10 Sur 0 -- -- 64
2018-01-15 17:00:00 11.1 3 Sudoeste 5 Sur 0 -- -- 58
2018-01-15 16:00:00 10.3 3 Sudeste 10 Nordeste 0 -- -- 61
2018-01-15 15:00:00 9.8 4 Este 13 Este 0 -- -- 63
2018-01-15 14:00:00 9.8 6 Nordeste 13 Nordeste 0 -- -- 62
2018-01-15 13:00:00 9.6 7 Este 13 Este 0 -- -- 63
2018-01-15 12:00:00 8.5 4 Nordeste 9 Norte 0 -- -- 66
2018-01-15 11:00:00 6.4 3 Sur 5 Sur 0 -- -- 81
2018-01-15 10:00:00 5.2 4 Sudoeste 8 Sur 0 -- -- 85
2018-01-15 09:00:00 4.7 2 Oeste 6 Oeste 0 -- -- 88
2018-01-15 08:00:00 5.1 3 Sur 6 Sur 0 -- -- 85
2018-01-15 07:00:00 5.2 0 Calma 4 Sudoeste 0 -- -- 87
2018-01-15 06:00:00 4.9 0 Calma 16 Nordeste 0 -- -- 86
2018-01-15 05:00:00 5.5 4 Nordeste 7 Nordeste 0 -- -- 76
2018-01-15 04:00:00 5.2 3 Sur 5 Sudoeste 0 -- -- 75
2018-01-15 03:00:00 5.1 2 Noroeste 3 Noroeste 0 -- -- 76
2018-01-15 02:00:00 5.5 0 Calma 7 Sudoeste 0 -- -- 72
2018-01-15 01:00:00 5.5 2 Sudoeste 10 Sudoeste 0 -- -- 71
2018-01-15 00:00:00 5.5 5 Sudoeste 9 Oeste 0 -- -- 71
2018-01-14 23:00:00 5.6 5 Sudoeste 9 Sudoeste 0 -- -- 70
2018-01-14 22:00:00 5.8 3 Sudoeste 10 Sudoeste 0 -- -- 69
2018-01-14 21:00:00 6.4 5 Sudoeste 12 Sudoeste 0 -- -- 67
2018-01-14 20:00:00 6.7 0 Calma 4 Oeste 0 -- -- 67
2018-01-14 19:00:00 7.7 2 Este 9 Noroeste 0 -- -- 62
2018-01-14 18:00:00 9 4 Noroeste 12 Sudoeste 0 -- -- 57
2018-01-14 17:00:00 9.9 9 Oeste 17 Sudoeste 0 -- -- 52
2018-01-14 16:00:00 11.5 3 Oeste 23 Oeste 0 -- -- 46
2018-01-14 15:00:00 10.8 4 Oeste 18 Noroeste 0 -- -- 49
2018-01-14 14:00:00 11.4 10 Sudoeste 26 Oeste 0 -- -- 48
2018-01-14 13:00:00 10.4 8 Oeste 30 Oeste 0 -- -- 51
2018-01-14 12:00:00 8.7 12 Oeste 29 Oeste 0 -- -- 58
2018-01-14 11:00:00 8.8 7 Oeste 24 Oeste 0 -- -- 57
2018-01-14 10:00:00 8.5 4 Sur 21 Oeste 0 -- -- 60
2018-01-14 09:00:00 6 5 Oeste 21 Sudoeste 0 -- -- 70
2018-01-14 08:00:00 5.7 6 Sudoeste 36 Oeste 0 -- -- 70
2018-01-14 07:00:00 6.2 16 Oeste 32 Oeste 0 -- -- 67
2018-01-14 06:00:00 6.3 7 Oeste 19 Oeste 0 -- -- 66
2018-01-14 05:00:00 6.1 2 Nordeste 21 Oeste 0 -- -- 68
2018-01-14 04:00:00 6.5 11 Sudoeste 23 Sur 0 -- -- 66
2018-01-14 03:00:00 7.1 14 Oeste 36 Sudoeste 0 -- -- 63
2018-01-14 02:00:00 7.9 15 Oeste 45 Oeste 0 -- -- 62
2018-01-14 01:00:00 8.1 10 Sudoeste 22 Oeste 0 -- -- 60
2018-01-14 00:00:00 7.3 4 Este 19 Sudoeste 0 -- -- 65
2018-01-13 23:00:00 8.1 8 Sudoeste 21 Sudoeste 0 -- -- 63
2018-01-13 22:00:00 7.5 4 Sur 13 Sudoeste 0 -- -- 73
2018-01-13 21:00:00 8.4 6 Sudoeste 13 Sur 0 -- -- 70
2018-01-13 20:00:00 8.3 4 Sudoeste 13 Sur 0 -- -- 71
2018-01-13 19:00:00 8.9 6 Sudoeste 23 Oeste 0 -- -- 66
2018-01-13 18:00:00 8.5 4 Sudoeste 23 Sudoeste 0 -- -- 70
2018-01-13 17:00:00 10.5 8 Sur 24 Sur 0 -- -- 61
2018-01-13 16:00:00 10.8 7 Sur 29 Sur 0 -- -- 57
2018-01-13 15:00:00 11.1 8 Sur 25 Sudoeste 0 -- -- 49
2018-01-13 14:00:00 12.1 6 Sur 28 Sudoeste 0 -- -- 41
2018-01-13 13:00:00 13.1 11 Sur 32 Sur 0 -- -- 37
2018-01-13 12:00:00 9.8 4 Nordeste 7 Nordeste 0 -- -- 53
2018-01-13 11:00:00 7 0 Calma 9 Sudoeste 0 -- -- 63
2018-01-13 10:00:00 6 10 Sudoeste 17 Sudoeste 0 -- -- 59
2018-01-13 09:00:00 3.5 3 Sudoeste 13 Sudoeste 0 -- -- 68
2018-01-13 08:00:00 2.7 7 Oeste 14 Sudoeste 0 -- -- 70
2018-01-13 07:00:00 3.1 5 Oeste 16 Sudoeste 0 -- -- 68
2018-01-13 06:00:00 3 10 Sudoeste 18 Sudoeste 0 -- -- 67
2018-01-13 05:00:00 3.8 10 Sudoeste 15 Sudoeste 0 -- -- 64
2018-01-13 04:00:00 4.2 8 Sudoeste 14 Sudoeste 0 -- -- 65
2018-01-13 03:00:00 4.5 9 Sudoeste 17 Sudoeste 0 -- -- 66
2018-01-13 02:00:00 4.9 10 Sudoeste 15 Sudoeste 0 -- -- 66
2018-01-13 01:00:00 4.8 8 Sudoeste 17 Sudoeste 0 -- -- 67
2018-01-13 00:00:00 4.6 6 Sudoeste 13 Sudoeste 0 -- -- 67
2018-01-12 23:00:00 5.6 9 Sudoeste 14 Sudoeste 0 -- -- 64
2018-01-12 22:00:00 6.1 6 Sudoeste 17 Sur 0 -- -- 62
2018-01-12 21:00:00 6.8 7 Sudoeste 18 Sur 0 -- -- 57
2018-01-12 20:00:00 7.6 12 Oeste 19 Oeste 0 -- -- 53
2018-01-12 19:00:00 9 15 Sudoeste 24 Sudoeste 0 -- -- 49
2018-01-12 18:00:00 9.8 6 Sudoeste 14 Oeste 0 -- -- 49
2018-01-12 17:00:00 11.9 5 Sudoeste 22 Sudoeste 0 -- -- 40
2018-01-12 16:00:00 12.6 7 Oeste 22 Sudoeste 0 -- -- 38
2018-01-12 15:00:00 13.1 10 Oeste 26 Oeste 0 -- -- 37
2018-01-12 14:00:00 13.7 10 Oeste 19 Sudoeste 0 -- -- 31
2018-01-12 13:00:00 12.8 9 Sudoeste 17 Sudoeste 0 -- -- 34
2018-01-12 12:00:00 11.1 6 Sur 14 Sudoeste 0 -- -- 41
2018-01-12 11:00:00 9.3 5 Sudeste 17 Sudoeste 0 -- -- 48
2018-01-12 10:00:00 6.3 9 Sur 15 Sudoeste 0 -- -- 57
2018-01-12 09:00:00 2.8 4 Sudoeste 12 Oeste 0 -- -- 69
2018-01-12 08:00:00 3.5 3 Oeste 9 Sur 0 -- -- 66
2018-01-12 07:00:00 4.2 6 Oeste 20 Sudoeste 0 -- -- 63
2018-01-12 06:00:00 5.1 8 Sudoeste 22 Sudeste 0 -- -- 60
2018-01-12 05:00:00 5.7 8 Sudeste 33 Sudoeste 0 -- -- 57
2018-01-12 04:00:00 6.2 6 Oeste 26 Oeste 0 -- -- 53
2018-01-12 03:00:00 5.9 4 Sudeste 37 Oeste 0 -- -- 55
2018-01-12 02:00:00 7.1 12 Oeste 38 Oeste 0 -- -- 50
2018-01-12 01:00:00 7.8 18 Noroeste 49 Oeste 0 -- -- 47
2018-01-12 00:00:00 7.1 16 Oeste 36 Oeste 0 -- -- 48
2018-01-11 23:00:00 6.5 6 Sudoeste 23 Este 0 -- -- 54
2018-01-11 22:00:00 7.2 9 Sudoeste 44 Oeste 0 -- -- 53
2018-01-11 21:00:00 8 19 Oeste 51 Oeste 0 -- -- 49
2018-01-11 20:00:00 8.1 20 Oeste 54 Oeste 0 -- -- 51
2018-01-11 19:00:00 8.2 26 Oeste 49 Noroeste 0 -- -- 53
2018-01-11 18:00:00 8.5 18 Oeste 51 Oeste 0 -- -- 50
2018-01-11 17:00:00 9.6 21 Oeste 54 Oeste 0 -- -- 45
2018-01-11 16:00:00 9.3 26 Oeste 49 Noroeste 0 -- -- 47
2018-01-11 15:00:00 9.9 19 Noroeste 42 Noroeste 0 -- -- 44
2018-01-11 14:00:00 10.1 20 Noroeste 57 Noroeste 0 -- -- 48
2018-01-11 13:00:00 9.9 24 Noroeste 68 Oeste 0 -- -- 49
2018-01-11 12:00:00 9.4 25 Oeste 53 Oeste 0 -- -- 54
2018-01-11 11:00:00 8.5 20 Oeste 63 Oeste 0 -- -- 58
2018-01-11 10:00:00 8.4 8 Sudoeste 33 Sur 0 -- -- 55
2018-01-11 09:00:00 6 6 Sudoeste 31 Oeste 0 -- -- 63
2018-01-11 08:00:00 6.7 25 Oeste 49 Oeste 0 -- -- 61
2018-01-11 07:00:00 6.8 25 Oeste 53 Oeste 0 -- -- 62
2018-01-11 06:00:00 6.9 19 Oeste 50 Oeste 0 -- -- 59
2018-01-11 05:00:00 7 24 Oeste 48 Oeste 0 -- -- 60
2018-01-11 04:00:00 7.2 20 Oeste 47 Oeste 0 -- -- 57
2018-01-11 03:00:00 7.8 25 Oeste 52 Oeste 0 -- -- 53
2018-01-11 02:00:00 8.5 23 Oeste 52 Oeste 0 -- -- 60
2018-01-11 01:00:00 9.1 21 Noroeste 43 Oeste 0 -- -- 63
2018-01-11 00:00:00 9.7 24 Oeste 51 Oeste 0 -- -- 66
2018-01-10 23:00:00 9.2 2 Este 8 Este 0 -- -- 65
2018-01-10 22:00:00 8.9 4 Sudoeste 19 Sudoeste 0 -- -- 64
2018-01-10 21:00:00 9.8 3 Sudoeste 24 Sudoeste 0 -- -- 61
2018-01-10 20:00:00 9.9 8 Sudoeste 53 Oeste 0 -- -- 62
2018-01-10 19:00:00 10.6 17 Oeste 53 Oeste 0 -- -- 58
2018-01-10 18:00:00 11.2 22 Oeste 49 Oeste 0 -- -- 55
2018-01-10 17:00:00 12 5 Sur 50 Oeste 0 -- -- 54
2018-01-10 16:00:00 11.6 14 Oeste 36 Sudoeste 0 -- -- 59
2018-01-10 15:00:00 11.5 7 Oeste 38 Sudoeste 0 -- -- 61
2018-01-10 14:00:00 11.3 19 Oeste 40 Oeste 0 -- -- 66
2018-01-10 13:00:00 11.2 22 Oeste 40 Oeste 0 -- -- 66
2018-01-10 12:00:00 12.6 8 Sudoeste 38 Oeste 0 -- -- 66
2018-01-10 11:00:00 10.6 13 Oeste 36 Oeste 0 -- -- 75
2018-01-10 10:00:00 9.7 3 Sudeste 15 Oeste 0 -- -- 81
2018-01-10 09:00:00 9.3 11 Oeste 22 Oeste 0 -- -- 82
2018-01-10 08:00:00 8.5 8 Sudoeste 25 Oeste 0.4 -- -- 86
2018-01-10 07:00:00 7.2 7 Sudoeste 14 Sur 0 -- -- 87
2018-01-10 06:00:00 6.9 7 Sur 13 Sur 0.2 -- -- 84
2018-01-10 05:00:00 6.8 5 Sur 14 Sur 0.2 -- -- 86
2018-01-10 04:00:00 7.2 4 Sudoeste 13 Sur 0.2 -- -- 74
2018-01-10 03:00:00 8 7 Sudoeste 12 Sudoeste 0 -- -- 65
2018-01-10 02:00:00 6.5 4 Sudoeste 8 Sudoeste 0.4 -- -- 81
2018-01-10 01:00:00 7.2 3 Sur 10 Sudoeste 0.6 -- -- 69
2018-01-10 00:00:00 8.1 6 Sudoeste 12 Sudoeste 0 -- -- 56
2018-01-09 23:00:00 7 6 Sudoeste 12 Sudoeste 0 -- -- 61
2018-01-09 22:00:00 6.9 4 Sudoeste 9 Sudoeste 0 -- -- 62
2018-01-09 21:00:00 6.9 3 Sudoeste 9 Sudoeste 0 -- -- 64
2018-01-09 20:00:00 7.2 6 Sudoeste 10 Sudoeste 0 -- -- 62
2018-01-09 19:00:00 7.4 4 Sudoeste 13 Sudoeste 0 -- -- 61
2018-01-09 18:00:00 8.9 6 Oeste 21 Oeste 0 -- -- 55
2018-01-09 17:00:00 10 11 Oeste 26 Sudoeste 0 -- -- 49
2018-01-09 16:00:00 11.2 13 Oeste 26 Sudoeste 0 -- -- 45
2018-01-09 15:00:00 10.7 17 Oeste 30 Oeste 0 -- -- 45
2018-01-09 14:00:00 11.8 15 Oeste 25 Oeste 0 -- -- 42
2018-01-09 13:00:00 11.5 12 Oeste 30 Oeste 0 -- -- 43
2018-01-09 12:00:00 10.7 12 Sudoeste 32 Sudoeste 0 -- -- 45
2018-01-09 11:00:00 9.4 14 Sudoeste 30 Sudoeste 0 -- -- 48
2018-01-09 10:00:00 7.6 8 Sur 21 Sudeste 0 -- -- 57
2018-01-09 09:00:00 3.6 6 Sudoeste 15 Sudoeste 0 -- -- 69
2018-01-09 08:00:00 3.4 9 Sudoeste 12 Sudoeste 0 -- -- 69
2018-01-09 07:00:00 3.5 5 Sudoeste 15 Sur 0 -- -- 69
2018-01-09 06:00:00 3.4 10 Sudoeste 14 Sudoeste 0 -- -- 70
2018-01-09 05:00:00 2.9 9 Sudoeste 18 Sudoeste 0 -- -- 72
2018-01-09 04:00:00 3 14 Sudoeste 22 Sudoeste 0 -- -- 71
2018-01-09 03:00:00 3.6 12 Sudoeste 18 Sudoeste 0 -- -- 70
2018-01-09 02:00:00 3.5 12 Sudoeste 20 Sudoeste 0 -- -- 70
2018-01-09 01:00:00 3.2 10 Sudoeste 16 Sudoeste 0 -- -- 73
2018-01-09 00:00:00 3.4 11 Sudoeste 20 Sudoeste 0 -- -- 73
2018-01-08 23:00:00 3.5 11 Sudoeste 19 Sudoeste 0 -- -- 74
2018-01-08 22:00:00 4.4 8 Sudoeste 15 Sudoeste 0 -- -- 70
2018-01-08 21:00:00 4.8 4 Oeste 11 Sur 0 -- -- 71
2018-01-08 20:00:00 5.6 6 Sudoeste 12 Sudoeste 0 -- -- 69
2018-01-08 19:00:00 6.7 6 Sudoeste 11 Sudoeste 0 -- -- 66
2018-01-08 18:00:00 8 6 Sudoeste 15 Sudoeste 0 -- -- 62
2018-01-08 17:00:00 10.2 8 Sur 21 Sudeste 0 -- -- 52
2018-01-08 16:00:00 10.8 7 Sur 24 Sudeste 0 -- -- 51
2018-01-08 15:00:00 11.8 9 Sur 21 Sudoeste 0 -- -- 49
2018-01-08 14:00:00 10.2 2 Nordeste 9 Nordeste 0 -- -- 55
2018-01-08 13:00:00 8.9 4 Este 10 Nordeste 0 -- -- 64
2018-01-08 12:00:00 7.6 3 Este 9 Nordeste 0 -- -- 65
2018-01-08 11:00:00 6.5 5 Este 9 Sudoeste 0 -- -- 69
2018-01-08 10:00:00 4.5 6 Sudoeste 18 Sudoeste 0 -- -- 74
2018-01-08 09:00:00 1.7 9 Sudoeste 18 Sudoeste 0 -- -- 83
2018-01-08 08:00:00 1.7 5 Sudoeste 15 Sudoeste 0 -- -- 84
2018-01-08 07:00:00 1.9 7 Sudoeste 15 Sudoeste 0 -- -- 84
2018-01-08 06:00:00 2.5 4 Sudoeste 6 Sudoeste 0 -- -- 85
2018-01-08 05:00:00 2.4 3 Oeste 12 Sudoeste 0 -- -- 84
2018-01-08 04:00:00 3.7 7 Sudoeste 12 Sudoeste 0 -- -- 81
2018-01-08 03:00:00 4.5 5 Sudoeste 10 Sudoeste 0 -- -- 80
2018-01-08 02:00:00 4.5 4 Sudoeste 14 Sudoeste 0 -- -- 80
2018-01-08 01:00:00 4.5 8 Sudoeste 14 Sudoeste 0 -- -- 80
2018-01-08 00:00:00 3.9 9 Sudoeste 15 Sudoeste 0 -- -- 78
2018-01-07 23:00:00 4.1 7 Oeste 10 Oeste 0 -- -- 79
2018-01-07 22:00:00 4.7 0 Calma 5 Sur 0 -- -- 78
2018-01-07 21:00:00 5.8 3 Sudoeste 7 Oeste 0 -- -- 71
2018-01-07 20:00:00 5.6 2 Noroeste 8 Sur 0 -- -- 73
2018-01-07 19:00:00 6.5 0 Calma 15 Sudoeste 0 -- -- 68
2018-01-07 18:00:00 7.2 5 Sudoeste 20 Sur 0 -- -- 65
2018-01-07 17:00:00 8.4 8 Sudoeste 21 Sur 0 -- -- 55
2018-01-07 16:00:00 10 6 Sur 19 Sudoeste 0 -- -- 41
2018-01-07 15:00:00 10.5 11 Sur 25 Sur 0 -- -- 42
2018-01-07 14:00:00 10.9 8 Sur 20 Sur 0 -- -- 41
2018-01-07 13:00:00 10.2 6 Sur 18 Sur 0 -- -- 48
2018-01-07 12:00:00 10.3 2 Sudeste 9 Este 0 -- -- 48
2018-01-07 11:00:00 8.7 0 Calma 11 Oeste 0 -- -- 60
2018-01-07 10:00:00 4.9 3 Sudeste 12 Sudoeste 0 -- -- 73
2018-01-07 09:00:00 2.5 6 Sudoeste 12 Sur 0 -- -- 85
2018-01-07 08:00:00 2.6 3 Sudoeste 13 Sudoeste 0 -- -- 85
2018-01-07 07:00:00 3.8 4 Sudoeste 19 Oeste 0 -- -- 79
2018-01-07 06:00:00 4.8 13 Oeste 25 Oeste 0 -- -- 71
2018-01-07 05:00:00 5 13 Sudoeste 23 Oeste 0 -- -- 69
2018-01-07 04:00:00 5 5 Sudoeste 22 Sudoeste 0 -- -- 69
2018-01-07 03:00:00 4.8 8 Sudoeste 17 Oeste 0 -- -- 71
2018-01-07 02:00:00 5.1 10 Sudoeste 29 Oeste 0 -- -- 71
2018-01-07 01:00:00 5.1 5 Sudoeste 20 Oeste 0 -- -- 72
2018-01-07 00:00:00 5.3 6 Oeste 20 Oeste 0 -- -- 73
2018-01-06 23:00:00 5.4 5 Sudoeste 24 Oeste 0 -- -- 76
2018-01-06 22:00:00 5.9 14 Sudoeste 40 Sudoeste 0 -- -- 75
2018-01-06 21:00:00 7.7 16 Sudoeste 27 Sudoeste 0 -- -- 76
2018-01-06 20:00:00 8.9 12 Sur 31 Sudoeste 0.4 -- -- 70
2018-01-06 19:00:00 9.1 11 Sur 37 Sur 6.4 -- -- 75
2018-01-06 18:00:00 10.5 17 Sudoeste 38 Sur 0.8 -- -- 77
2018-01-06 17:00:00 11.9 9 Sudoeste 32 Sur 0 -- -- 63
2018-01-06 16:00:00 12.3 7 Sudeste 17 Sur 0 -- -- 66
2018-01-06 15:00:00 13.2 8 Sur 21 Sur 0 -- -- 63
2018-01-06 14:00:00 14.1 12 Sur 23 Sudoeste 0 -- -- 51
2018-01-06 13:00:00 15.2 9 Sudoeste 26 Sudoeste 0 -- -- 48
2018-01-06 12:00:00 13.9 8 Sudeste 21 Sur 0 -- -- 50
2018-01-06 11:00:00 11.4 7 Sudoeste 30 Sur 0 -- -- 69
2018-01-06 10:00:00 11.7 14 Sur 38 Sur 0 -- -- 59
2018-01-06 09:00:00 8 2 Nordeste 9 Oeste 0 -- -- 68
2018-01-06 08:00:00 6.7 2 Norte 17 Sudoeste 0 -- -- 73
2018-01-06 07:00:00 7.4 11 Sudoeste 17 Sudoeste 0 -- -- 71
2018-01-06 06:00:00 7 11 Sudoeste 18 Sudoeste 0 -- -- 75
2018-01-06 05:00:00 6.3 6 Sudoeste 15 Sudoeste 0 -- -- 77
2018-01-06 04:00:00 5.1 4 Sudoeste 9 Sur 0 -- -- 80
2018-01-06 03:00:00 6.3 5 Sudoeste 14 Sudoeste 0 -- -- 76
2018-01-06 02:00:00 5.9 0 Calma 13 Sudoeste 0 -- -- 76
2018-01-06 01:00:00 7.8 8 Sudoeste 18 Oeste 0 -- -- 68
2018-01-06 00:00:00 7.3 9 Sudoeste 18 Sudoeste 0 -- -- 71
2018-01-05 23:00:00 7.6 12 Sudoeste 17 Sudoeste 0 -- -- 71
2018-01-05 22:00:00 7.9 10 Sudoeste 15 Sudoeste 0 -- -- 71
2018-01-05 21:00:00 8.5 6 Sudoeste 10 Sudoeste 0 -- -- 70
2018-01-05 20:00:00 9.4 7 Sudoeste 13 Sudoeste 0 -- -- 67
2018-01-05 19:00:00 11.2 5 Sudoeste 21 Oeste 0 -- -- 62
2018-01-05 18:00:00 13 14 Oeste 26 Oeste 0 -- -- 54
2018-01-05 17:00:00 15.1 8 Sudoeste 23 Sudoeste 0 -- -- 49
2018-01-05 16:00:00 15.9 6 Sudoeste 22 Oeste 0 -- -- 47
2018-01-05 15:00:00 16.4 5 Sudoeste 36 Oeste 0 -- -- 43
2018-01-05 14:00:00 15.4 20 Oeste 39 Oeste 0 -- -- 47
2018-01-05 13:00:00 15.7 15 Oeste 30 Oeste 0 -- -- 47
2018-01-05 12:00:00 14.5 10 Oeste 28 Oeste 0 -- -- 53
2018-01-05 11:00:00 13.6 8 Oeste 27 Oeste 0 -- -- 57
2018-01-05 10:00:00 12.7 7 Oeste 25 Oeste 0 -- -- 59
2018-01-05 09:00:00 9.8 8 Sudoeste 18 Sudoeste 0 -- -- 69
2018-01-05 08:00:00 9.7 6 Sudoeste 18 Sudoeste 0 -- -- 71
2018-01-05 07:00:00 9.5 4 Oeste 28 Sudoeste 0 -- -- 72
2018-01-05 06:00:00 9.6 7 Sur 23 Sur 0 -- -- 72
2018-01-05 05:00:00 10.1 4 Sudoeste 24 Oeste 0 -- -- 70
2018-01-05 04:00:00 10.4 4 Este 29 Sudoeste 0 -- -- 69
2018-01-05 03:00:00 10.2 3 Sur 18 Sudoeste 0 -- -- 71
2018-01-05 02:00:00 10.8 4 Sudeste 18 Noroeste 0 -- -- 69
2018-01-05 01:00:00 11 3 Sudoeste 13 Sudoeste 0 -- -- 70
2018-01-05 00:00:00 11.8 9 Sudoeste 31 Oeste 0 -- -- 69
2018-01-04 23:00:00 11.6 3 Oeste 11 Sudoeste 0 -- -- 72
2018-01-04 22:00:00 12.1 5 Sudoeste 29 Sudoeste 0 -- -- 73
2018-01-04 21:00:00 12.4 9 Sudoeste 34 Oeste 0 -- -- 73
2018-01-04 20:00:00 12.8 13 Sudoeste 22 Oeste 0 -- -- 70
2018-01-04 19:00:00 13.2 7 Sur 19 Sudoeste 0 -- -- 69
2018-01-04 18:00:00 14.1 4 Este 39 Oeste 0 -- -- 65
2018-01-04 17:00:00 16.6 13 Oeste 36 Oeste 0 -- -- 56
2018-01-04 16:00:00 18.6 11 Oeste 39 Noroeste 0 -- -- 49
2018-01-04 15:00:00 19.4 17 Oeste 37 Oeste 0 -- -- 45
2018-01-04 14:00:00 19.9 27 Oeste 50 Oeste 0 -- -- 44
2018-01-04 13:00:00 20.4 22 Oeste 40 Oeste 0 -- -- 42
2018-01-04 12:00:00 18.8 22 Oeste 36 Oeste 0 -- -- 48
2018-01-04 11:00:00 17.5 10 Oeste 25 Oeste 0 -- -- 54
2018-01-04 10:00:00 15.2 6 Sur 20 Sur 0 -- -- 62
2018-01-04 09:00:00 12.7 6 Sudoeste 23 Sur 0 -- -- 71
2018-01-04 08:00:00 11.8 12 Sudoeste 21 Sur 0 -- -- 76
2018-01-04 07:00:00 11.8 11 Sudoeste 27 Sudoeste 0 -- -- 77
2018-01-04 06:00:00 12.2 13 Sudoeste 27 Sudoeste 0 -- -- 75
2018-01-04 05:00:00 11.7 11 Sudoeste 25 Sur 0 -- -- 78
2018-01-04 04:00:00 12.3 11 Sudoeste 26 Sur 0 -- -- 75
2018-01-04 03:00:00 13.3 7 Sur 33 Oeste 0 -- -- 69
2018-01-04 02:00:00 12.9 9 Sudoeste 20 Sudoeste 0 -- -- 72
2018-01-04 01:00:00 12.7 8 Sur 21 Sur 0 -- -- 73
2018-01-04 00:00:00 12.2 13 Sudoeste 27 Sur 0 -- -- 76
2018-01-03 23:00:00 12.8 11 Sudoeste 23 Sudoeste 0 -- -- 73
2018-01-03 22:00:00 13.8 16 Sudoeste 33 Sudoeste 0 -- -- 67
2018-01-03 21:00:00 13.5 10 Sudoeste 25 Sudoeste 0 -- -- 67
2018-01-03 20:00:00 14.3 9 Sur 21 Sudoeste 0 -- -- 64
2018-01-03 19:00:00 14.7 9 Sudoeste 21 Sur 0 -- -- 62
2018-01-03 18:00:00 15.4 4 Oeste 19 Sur 0 -- -- 60
2018-01-03 17:00:00 16.7 8 Sur 24 Sur 0 -- -- 57
2018-01-03 16:00:00 18.1 9 Oeste 33 Oeste 0 -- -- 52
2018-01-03 15:00:00 18.4 16 Oeste 30 Sudoeste 0 -- -- 51
2018-01-03 14:00:00 18.6 10 Sudoeste 23 Sudoeste 0 -- -- 50
2018-01-03 13:00:00 18.9 12 Sudoeste 27 Sudoeste 0 -- -- 51
2018-01-03 12:00:00 16 12 Sudoeste 26 Sur 0 -- -- 59
2018-01-03 11:00:00 14.6 10 Sudoeste 28 Sudoeste 0 -- -- 64
2018-01-03 10:00:00 14 18 Sudoeste 32 Sudoeste 0 -- -- 64
2018-01-03 09:00:00 11.4 12 Sur 27 Sudoeste 0 -- -- 73
2018-01-03 08:00:00 11.5 13 Sudoeste 32 Oeste 0 -- -- 73
2018-01-03 07:00:00 11.2 12 Sudoeste 35 Oeste 0 -- -- 75
2018-01-03 06:00:00 11.4 24 Oeste 37 Sudoeste 0 -- -- 74
2018-01-03 05:00:00 11.4 19 Oeste 40 Oeste 0 -- -- 73
2018-01-03 04:00:00 11.5 12 Sudoeste 23 Sur 0 -- -- 72
2018-01-03 03:00:00 11.4 10 Sudoeste 22 Sudeste 0 -- -- 70
2018-01-03 02:00:00 11.9 8 Sur 29 Oeste 0 -- -- 68
2018-01-03 01:00:00 12.4 12 Sudoeste 22 Sur 0 -- -- 65
2018-01-03 00:00:00 12.1 6 Sur 23 Sur 0 -- -- 62
2018-01-02 23:00:00 12.2 9 Sur 22 Sudoeste 0 -- -- 62
2018-01-02 22:00:00 12 8 Sudoeste 19 Oeste 0 -- -- 63
2018-01-02 21:00:00 12.6 5 Sudoeste 21 Sur 0 -- -- 60
2018-01-02 20:00:00 12.8 7 Sudoeste 21 Oeste 0 -- -- 59
2018-01-02 19:00:00 12.9 7 Sudoeste 24 Oeste 0 -- -- 58
2018-01-02 18:00:00 14.1 7 Sudoeste 21 Sur 0 -- -- 53
2018-01-02 17:00:00 15.3 11 Sudoeste 28 Oeste 0 -- -- 48
2018-01-02 16:00:00 16.4 15 Oeste 29 Oeste 0 -- -- 44
2018-01-02 15:00:00 15.2 14 Sudoeste 28 Oeste 0 -- -- 46
2018-01-02 14:00:00 15.4 5 Norte 31 Sudoeste 0 -- -- 44
2018-01-02 13:00:00 12.5 11 Oeste 40 Oeste 0 -- -- 53
2018-01-02 12:00:00 11.4 23 Oeste 39 Sudoeste 0 -- -- 59
2018-01-02 11:00:00 10.1 9 Sudoeste 23 Sur 0 -- -- 63
2018-01-02 10:00:00 9.3 7 Sur 26 Sur 0 -- -- 66
2018-01-02 09:00:00 8.4 3 Oeste 22 Oeste 0 -- -- 71
2018-01-02 08:00:00 8.2 6 Sudoeste 20 Sudoeste 0 -- -- 73
2018-01-02 07:00:00 8.1 4 Sudeste 26 Sudoeste 0 -- -- 74
2018-01-02 06:00:00 8.4 9 Sudoeste 38 Sudoeste 0 -- -- 74
2018-01-02 05:00:00 9.4 15 Sudoeste 42 Oeste 0 -- -- 69
2018-01-02 04:00:00 9.6 18 Sudoeste 44 Oeste 0 -- -- 69
2018-01-02 03:00:00 9.8 15 Oeste 39 Sudoeste 0 -- -- 67
2018-01-02 02:00:00 10.4 17 Sudoeste 41 Oeste 0 -- -- 63
2018-01-02 01:00:00 9.7 12 Sudoeste 38 Sudoeste 0 -- -- 63
2018-01-02 00:00:00 9.6 4 Sudoeste 22 Sudeste 0 -- -- 59
2018-01-01 23:00:00 10.3 7 Sur 19 Sudeste 0 -- -- 51
2018-01-01 22:00:00 11.1 9 Sudoeste 46 Oeste 0 -- -- 46
2018-01-01 21:00:00 11.2 15 Oeste 40 Oeste 0 -- -- 44
2018-01-01 20:00:00 11.6 12 Sudoeste 33 Sudoeste 0 -- -- 36
2018-01-01 19:00:00 12.2 6 Este 25 Sudoeste 0 -- -- 31
2018-01-01 18:00:00 13 13 Sudoeste 40 Sudoeste 0 -- -- 30
2018-01-01 17:00:00 14.5 17 Oeste 40 Sur 0 -- -- 26
2018-01-01 16:00:00 15.5 15 Sudoeste 48 Oeste 0 -- -- 23
2018-01-01 15:00:00 15.6 23 Oeste 45 Sudoeste 0 -- -- 20
2018-01-01 14:00:00 15.2 21 Oeste 33 Sudoeste 0 -- -- 24
2018-01-01 13:00:00 14.3 21 Oeste 36 Sudoeste 0 -- -- 31
2018-01-01 12:00:00 14.3 12 Sudoeste 27 Sudoeste 0 -- -- 26
2018-01-01 11:00:00 11.8 12 Sur 24 Sur 0 -- -- 38
2018-01-01 10:00:00 9.3 11 Sur 20 Sur 0 -- -- 43
2018-01-01 09:00:00 7.7 8 Sudoeste 22 Sur 0 -- -- 45
2018-01-01 08:00:00 7.3 8 Sur 27 Sudeste 0 -- -- 48
2018-01-01 07:00:00 7.3 5 Sudoeste 31 Oeste 0 -- -- 50
2018-01-01 06:00:00 7.9 18 Oeste 44 Oeste 0 -- -- 49
2018-01-01 05:00:00 8.3 27 Oeste 61 Oeste 0 -- -- 49
2018-01-01 04:00:00 8.9 32 Oeste 61 Noroeste 0 -- -- 49
2018-01-01 03:00:00 9.2 28 Oeste 73 Oeste 0 -- -- 54
2018-01-01 02:00:00 10 30 Oeste 65 Oeste 0 -- -- 53
2018-01-01 01:00:00 10.4 14 Oeste 55 Sudoeste 0 -- -- 57
2018-01-01 00:00:00 11.5 14 Oeste 45 Norte 0 -- -- 56
2017-12-31 23:00:00 12.8 8 Sur 57 Noroeste 0 -- -- 63
2017-12-31 22:00:00 12.9 18 Oeste 48 Oeste 0 -- -- 63
2017-12-31 21:00:00 12.7 9 Sudoeste 44 Sudoeste 0 -- -- 62
2017-12-31 20:00:00 13.1 6 Noroeste 31 Oeste 0 -- -- 60
2017-12-31 19:00:00 13.6 6 Sur 46 Noroeste 0 -- -- 55
2017-12-31 18:00:00 13.7 12 Sudoeste 30 Sur 0 -- -- 55
2017-12-31 17:00:00 14.1 13 Sudoeste 29 Sur 0 -- -- 59
2017-12-31 16:00:00 16.5 17 Sudoeste 38 Oeste 0 -- -- 48
2017-12-31 15:00:00 17.3 13 Sudoeste 30 Sudoeste 0 -- -- 40
2017-12-31 14:00:00 19.1 12 Sudoeste 26 Sudoeste 0 -- -- 32
2017-12-31 13:00:00 19.1 10 Oeste 22 Oeste 0 -- -- 31
2017-12-31 12:00:00 19.5 5 Oeste 15 Noroeste 0 -- -- 28
2017-12-31 11:00:00 16 9 Sudoeste 14 Sur 0 -- -- 34
2017-12-31 10:00:00 12.3 9 Sudoeste 12 Sudoeste 0 -- -- 41
2017-12-31 09:00:00 9.9 9 Sudoeste 14 Sudoeste 0 -- -- 45
2017-12-31 08:00:00 9.3 4 Sudoeste 18 Sudoeste 0 -- -- 47
2017-12-31 07:00:00 10.1 10 Sudoeste 15 Sudoeste 0 -- -- 43
2017-12-31 06:00:00 9.5 4 Sudoeste 17 Sudoeste 0 -- -- 44
2017-12-31 05:00:00 9.9 8 Sudoeste 17 Sudoeste 0 -- -- 47
2017-12-31 04:00:00 10.7 6 Sudoeste 24 Sudoeste 0 -- -- 48
2017-12-31 03:00:00 11.6 15 Sudoeste 22 Sudoeste 0 -- -- 50
2017-12-31 02:00:00 11.6 12 Sudoeste 22 Sudoeste 0 -- -- 50
2017-12-31 01:00:00 11.9 10 Sudoeste 23 Sudoeste 0 -- -- 50